sensor_id;sensor_type;location;lat;lon;timestamp;P1;durP1;ratioP1;P2;durP2;ratioP2
43837;SDS011;65998;46.256;7.534;2024-03-23T00:53:53;2.20;;;0.60;;
43837;SDS011;65998;46.256;7.534;2024-03-23T00:56:18;1.83;;;0.40;;
43837;SDS011;65998;46.256;7.534;2024-03-23T00:58:44;2.10;;;0.40;;
43837;SDS011;65998;46.256;7.534;2024-03-23T01:01:10;2.50;;;0.47;;
43837;SDS011;65998;46.256;7.534;2024-03-23T01:03:36;2.20;;;0.50;;
43837;SDS011;65998;46.256;7.534;2024-03-23T01:06:02;2.10;;;0.53;;
43837;SDS011;65998;46.256;7.534;2024-03-23T01:08:29;2.22;;;0.57;;
43837;SDS011;65998;46.256;7.534;2024-03-23T01:10:58;1.92;;;0.50;;
43837;SDS011;65998;46.256;7.534;2024-03-23T01:13:26;1.83;;;0.32;;
43837;SDS011;65998;46.256;7.534;2024-03-23T01:15:53;1.85;;;0.40;;
43837;SDS011;65998;46.256;7.534;2024-03-23T01:18:20;2.13;;;0.50;;
43837;SDS011;65998;46.256;7.534;2024-03-23T01:20:48;2.28;;;0.45;;
43837;SDS011;65998;46.256;7.534;2024-03-23T01:23:14;3.45;;;0.40;;
43837;SDS011;65998;46.256;7.534;2024-03-23T01:25:40;3.00;;;0.73;;
43837;SDS011;65998;46.256;7.534;2024-03-23T01:28:06;3.63;;;1.10;;
43837;SDS011;65998;46.256;7.534;2024-03-23T01:30:33;2.25;;;0.40;;
43837;SDS011;65998;46.256;7.534;2024-03-23T01:33:02;3.30;;;0.50;;
43837;SDS011;65998;46.256;7.534;2024-03-23T01:35:28;2.45;;;0.50;;
43837;SDS011;65998;46.256;7.534;2024-03-23T01:37:54;1.75;;;0.43;;
43837;SDS011;65998;46.256;7.534;2024-03-23T01:40:20;1.60;;;0.38;;
43837;SDS011;65998;46.256;7.534;2024-03-23T01:42:56;2.53;;;0.50;;
43837;SDS011;65998;46.256;7.534;2024-03-23T01:45:22;2.33;;;0.60;;
43837;SDS011;65998;46.256;7.534;2024-03-23T01:47:53;4.32;;;0.88;;
43837;SDS011;65998;46.256;7.534;2024-03-23T01:50:19;3.10;;;0.60;;
43837;SDS011;65998;46.256;7.534;2024-03-23T01:52:46;1.83;;;0.50;;
43837;SDS011;65998;46.256;7.534;2024-03-23T01:55:13;2.30;;;0.55;;
43837;SDS011;65998;46.256;7.534;2024-03-23T01:57:39;2.13;;;0.63;;
43837;SDS011;65998;46.256;7.534;2024-03-23T02:00:05;3.25;;;0.65;;
43837;SDS011;65998;46.256;7.534;2024-03-23T02:02:32;1.98;;;0.50;;
43837;SDS011;65998;46.256;7.534;2024-03-23T02:04:57;2.37;;;0.40;;
43837;SDS011;65998;46.256;7.534;2024-03-23T02:07:24;2.15;;;0.47;;
43837;SDS011;65998;46.256;7.534;2024-03-23T02:09:50;1.90;;;0.40;;
43837;SDS011;65998;46.256;7.534;2024-03-23T02:12:17;3.22;;;0.57;;
43837;SDS011;65998;46.256;7.534;2024-03-23T02:14:46;2.97;;;0.60;;
43837;SDS011;65998;46.256;7.534;2024-03-23T02:17:12;3.20;;;0.55;;
43837;SDS011;65998;46.256;7.534;2024-03-23T02:19:38;2.10;;;0.50;;
43837;SDS011;65998;46.256;7.534;2024-03-23T02:22:04;2.63;;;0.50;;
43837;SDS011;65998;46.256;7.534;2024-03-23T02:24:30;2.05;;;0.50;;
43837;SDS011;65998;46.256;7.534;2024-03-23T02:26:56;2.58;;;0.50;;
43837;SDS011;65998;46.256;7.534;2024-03-23T02:29:21;2.17;;;0.40;;
43837;SDS011;65998;46.256;7.534;2024-03-23T02:31:47;1.60;;;0.40;;
43837;SDS011;65998;46.256;7.534;2024-03-23T02:34:13;2.10;;;0.50;;
43837;SDS011;65998;46.256;7.534;2024-03-23T02:36:39;1.77;;;0.40;;
43837;SDS011;65998;46.256;7.534;2024-03-23T02:39:04;2.63;;;0.50;;
43837;SDS011;65998;46.256;7.534;2024-03-23T02:41:30;1.60;;;0.40;;
43837;SDS011;65998;46.256;7.534;2024-03-23T02:43:56;2.83;;;0.50;;
43837;SDS011;65998;46.256;7.534;2024-03-23T02:46:22;3.95;;;0.60;;
43837;SDS011;65998;46.256;7.534;2024-03-23T02:48:51;2.07;;;0.50;;
43837;SDS011;65998;46.256;7.534;2024-03-23T02:51:17;1.98;;;0.40;;
43837;SDS011;65998;46.256;7.534;2024-03-23T02:53:42;2.07;;;0.30;;
43837;SDS011;65998;46.256;7.534;2024-03-23T02:56:08;1.90;;;0.40;;
43837;SDS011;65998;46.256;7.534;2024-03-23T02:58:34;3.00;;;0.40;;
43837;SDS011;65998;46.256;7.534;2024-03-23T03:01:00;2.30;;;0.40;;
43837;SDS011;65998;46.256;7.534;2024-03-23T03:03:26;2.63;;;0.30;;
43837;SDS011;65998;46.256;7.534;2024-03-23T03:05:55;3.63;;;0.50;;
43837;SDS011;65998;46.256;7.534;2024-03-23T03:08:21;2.97;;;0.43;;
43837;SDS011;65998;46.256;7.534;2024-03-23T03:10:47;2.20;;;0.40;;
43837;SDS011;65998;46.256;7.534;2024-03-23T03:13:12;3.25;;;0.50;;
43837;SDS011;65998;46.256;7.534;2024-03-23T03:15:39;2.25;;;0.50;;
43837;SDS011;65998;46.256;7.534;2024-03-23T03:18:08;2.28;;;0.43;;
43837;SDS011;65998;46.256;7.534;2024-03-23T03:20:37;3.70;;;0.60;;
43837;SDS011;65998;46.256;7.534;2024-03-23T03:23:04;2.13;;;0.50;;
43837;SDS011;65998;46.256;7.534;2024-03-23T03:25:30;3.20;;;0.60;;
43837;SDS011;65998;46.256;7.534;2024-03-23T03:27:58;1.70;;;0.40;;
43837;SDS011;65998;46.256;7.534;2024-03-23T03:30:24;2.45;;;0.40;;
43837;SDS011;65998;46.256;7.534;2024-03-23T03:32:51;2.00;;;0.50;;
43837;SDS011;65998;46.256;7.534;2024-03-23T03:35:20;1.77;;;0.50;;
43837;SDS011;65998;46.256;7.534;2024-03-23T03:37:46;2.05;;;0.50;;
43837;SDS011;65998;46.256;7.534;2024-03-23T03:40:12;2.97;;;0.60;;
43837;SDS011;65998;46.256;7.534;2024-03-23T03:42:38;1.73;;;0.40;;
43837;SDS011;65998;46.256;7.534;2024-03-23T03:45:04;2.00;;;0.50;;
43837;SDS011;65998;46.256;7.534;2024-03-23T03:47:30;1.92;;;0.40;;
43837;SDS011;65998;46.256;7.534;2024-03-23T03:49:56;1.90;;;0.47;;
43837;SDS011;65998;46.256;7.534;2024-03-23T03:52:22;1.95;;;0.40;;
43837;SDS011;65998;46.256;7.534;2024-03-23T03:54:48;1.60;;;0.30;;
43837;SDS011;65998;46.256;7.534;2024-03-23T03:57:13;3.10;;;0.40;;
43837;SDS011;65998;46.256;7.534;2024-03-23T03:59:39;2.72;;;0.60;;
43837;SDS011;65998;46.256;7.534;2024-03-23T04:02:05;1.87;;;0.30;;
43837;SDS011;65998;46.256;7.534;2024-03-23T04:04:31;2.42;;;0.55;;
43837;SDS011;65998;46.256;7.534;2024-03-23T04:07:00;2.53;;;0.33;;
43837;SDS011;65998;46.256;7.534;2024-03-23T04:09:26;1.98;;;0.40;;
43837;SDS011;65998;46.256;7.534;2024-03-23T04:11:52;2.00;;;0.40;;
43837;SDS011;65998;46.256;7.534;2024-03-23T04:14:18;3.08;;;0.40;;
43837;SDS011;65998;46.256;7.534;2024-03-23T04:16:44;2.37;;;0.40;;
43837;SDS011;65998;46.256;7.534;2024-03-23T04:19:10;1.80;;;0.40;;
43837;SDS011;65998;46.256;7.534;2024-03-23T04:21:36;1.73;;;0.37;;
43837;SDS011;65998;46.256;7.534;2024-03-23T04:24:03;2.70;;;0.45;;
43837;SDS011;65998;46.256;7.534;2024-03-23T04:26:29;1.83;;;0.45;;
43837;SDS011;65998;46.256;7.534;2024-03-23T04:28:55;2.42;;;0.40;;
43837;SDS011;65998;46.256;7.534;2024-03-23T04:31:21;2.93;;;0.53;;
43837;SDS011;65998;46.256;7.534;2024-03-23T04:33:47;1.73;;;0.40;;
43837;SDS011;65998;46.256;7.534;2024-03-23T04:36:13;2.27;;;0.50;;
43837;SDS011;65998;46.256;7.534;2024-03-23T04:38:39;1.83;;;0.50;;
43837;SDS011;65998;46.256;7.534;2024-03-23T04:41:04;1.50;;;0.30;;
43837;SDS011;65998;46.256;7.534;2024-03-23T04:43:30;2.10;;;0.40;;
43837;SDS011;65998;46.256;7.534;2024-03-23T04:45:56;2.08;;;0.30;;
43837;SDS011;65998;46.256;7.534;2024-03-23T04:48:22;3.15;;;0.80;;
43837;SDS011;65998;46.256;7.534;2024-03-23T04:50:49;1.57;;;0.30;;
43837;SDS011;65998;46.256;7.534;2024-03-23T04:53:15;2.53;;;0.50;;
43837;SDS011;65998;46.256;7.534;2024-03-23T04:55:42;1.98;;;0.50;;
43837;SDS011;65998;46.256;7.534;2024-03-23T04:58:08;1.98;;;0.40;;
43837;SDS011;65998;46.256;7.534;2024-03-23T05:00:34;2.67;;;0.60;;
43837;SDS011;65998;46.256;7.534;2024-03-23T05:03:00;3.72;;;0.60;;
43837;SDS011;65998;46.256;7.534;2024-03-23T05:05:25;2.13;;;0.50;;
43837;SDS011;65998;46.256;7.534;2024-03-23T05:07:51;2.15;;;0.40;;
43837;SDS011;65998;46.256;7.534;2024-03-23T05:10:17;3.05;;;0.90;;
43837;SDS011;65998;46.256;7.534;2024-03-23T05:12:43;1.93;;;0.53;;
43837;SDS011;65998;46.256;7.534;2024-03-23T05:15:09;3.53;;;0.80;;
43837;SDS011;65998;46.256;7.534;2024-03-23T05:17:35;2.35;;;0.82;;
43837;SDS011;65998;46.256;7.534;2024-03-23T05:20:00;3.60;;;0.77;;
43837;SDS011;65998;46.256;7.534;2024-03-23T05:22:26;7.43;;;2.63;;
43837;SDS011;65998;46.256;7.534;2024-03-23T05:24:52;4.33;;;1.57;;
43837;SDS011;65998;46.256;7.534;2024-03-23T05:27:19;2.92;;;0.73;;
43837;SDS011;65998;46.256;7.534;2024-03-23T05:29:44;3.60;;;0.70;;
43837;SDS011;65998;46.256;7.534;2024-03-23T05:32:10;3.50;;;1.30;;
43837;SDS011;65998;46.256;7.534;2024-03-23T05:34:36;3.65;;;1.05;;
43837;SDS011;65998;46.256;7.534;2024-03-23T05:37:02;2.90;;;0.80;;
43837;SDS011;65998;46.256;7.534;2024-03-23T05:39:28;2.28;;;0.60;;
43837;SDS011;65998;46.256;7.534;2024-03-23T05:41:54;4.13;;;1.08;;
43837;SDS011;65998;46.256;7.534;2024-03-23T05:44:19;2.53;;;0.70;;
43837;SDS011;65998;46.256;7.534;2024-03-23T05:46:45;3.95;;;1.20;;
43837;SDS011;65998;46.256;7.534;2024-03-23T05:49:11;4.60;;;2.10;;
43837;SDS011;65998;46.256;7.534;2024-03-23T05:51:37;3.42;;;1.13;;
43837;SDS011;65998;46.256;7.534;2024-03-23T05:54:02;2.37;;;0.90;;
43837;SDS011;65998;46.256;7.534;2024-03-23T05:56:28;3.13;;;0.90;;
43837;SDS011;65998;46.256;7.534;2024-03-23T05:58:54;3.40;;;0.90;;
43837;SDS011;65998;46.256;7.534;2024-03-23T06:01:20;4.53;;;1.17;;
43837;SDS011;65998;46.256;7.534;2024-03-23T06:03:45;5.03;;;1.23;;
43837;SDS011;65998;46.256;7.534;2024-03-23T06:06:11;6.50;;;2.00;;
43837;SDS011;65998;46.256;7.534;2024-03-23T06:08:37;5.80;;;2.38;;
43837;SDS011;65998;46.256;7.534;2024-03-23T06:11:04;4.22;;;0.73;;
43837;SDS011;65998;46.256;7.534;2024-03-23T06:13:30;3.27;;;0.80;;
43837;SDS011;65998;46.256;7.534;2024-03-23T06:15:56;3.97;;;0.73;;
43837;SDS011;65998;46.256;7.534;2024-03-23T06:18:21;3.05;;;0.93;;
43837;SDS011;65998;46.256;7.534;2024-03-23T06:20:47;4.82;;;0.80;;
43837;SDS011;65998;46.256;7.534;2024-03-23T06:23:13;9.05;;;1.80;;
43837;SDS011;65998;46.256;7.534;2024-03-23T06:25:39;13.03;;;3.10;;
43837;SDS011;65998;46.256;7.534;2024-03-23T06:28:05;11.02;;;3.33;;
43837;SDS011;65998;46.256;7.534;2024-03-23T06:30:31;17.65;;;4.15;;
43837;SDS011;65998;46.256;7.534;2024-03-23T06:32:56;10.57;;;2.13;;
43837;SDS011;65998;46.256;7.534;2024-03-23T06:35:22;5.88;;;1.30;;
43837;SDS011;65998;46.256;7.534;2024-03-23T06:37:48;4.17;;;1.00;;
43837;SDS011;65998;46.256;7.534;2024-03-23T06:40:14;3.83;;;1.40;;
43837;SDS011;65998;46.256;7.534;2024-03-23T06:42:40;3.22;;;0.95;;
43837;SDS011;65998;46.256;7.534;2024-03-23T06:45:06;8.60;;;0.93;;
43837;SDS011;65998;46.256;7.534;2024-03-23T06:47:32;4.25;;;1.80;;
43837;SDS011;65998;46.256;7.534;2024-03-23T06:50:02;4.50;;;0.98;;
43837;SDS011;65998;46.256;7.534;2024-03-23T06:52:29;5.55;;;1.00;;
43837;SDS011;65998;46.256;7.534;2024-03-23T06:54:56;4.93;;;0.80;;
43837;SDS011;65998;46.256;7.534;2024-03-23T06:57:22;2.92;;;0.90;;
43837;SDS011;65998;46.256;7.534;2024-03-23T06:59:48;3.80;;;1.10;;
43837;SDS011;65998;46.256;7.534;2024-03-23T07:02:14;5.50;;;1.20;;
43837;SDS011;65998;46.256;7.534;2024-03-23T07:04:40;16.35;;;6.60;;
43837;SDS011;65998;46.256;7.534;2024-03-23T07:07:06;5.30;;;2.53;;
43837;SDS011;65998;46.256;7.534;2024-03-23T07:09:32;4.25;;;1.40;;
43837;SDS011;65998;46.256;7.534;2024-03-23T07:11:58;3.55;;;1.35;;
43837;SDS011;65998;46.256;7.534;2024-03-23T07:14:24;8.13;;;1.45;;
43837;SDS011;65998;46.256;7.534;2024-03-23T07:16:50;5.55;;;1.52;;
43837;SDS011;65998;46.256;7.534;2024-03-23T07:19:16;6.17;;;1.43;;
43837;SDS011;65998;46.256;7.534;2024-03-23T07:21:43;4.55;;;1.00;;
43837;SDS011;65998;46.256;7.534;2024-03-23T07:24:12;5.55;;;1.70;;
43837;SDS011;65998;46.256;7.534;2024-03-23T07:26:38;7.03;;;1.55;;
43837;SDS011;65998;46.256;7.534;2024-03-23T07:29:06;7.28;;;1.40;;
43837;SDS011;65998;46.256;7.534;2024-03-23T07:31:32;3.20;;;1.10;;
43837;SDS011;65998;46.256;7.534;2024-03-23T07:33:59;4.68;;;1.48;;
43837;SDS011;65998;46.256;7.534;2024-03-23T07:36:24;5.80;;;1.75;;
43837;SDS011;65998;46.256;7.534;2024-03-23T07:38:51;5.40;;;1.93;;
43837;SDS011;65998;46.256;7.534;2024-03-23T07:41:19;5.45;;;1.88;;
43837;SDS011;65998;46.256;7.534;2024-03-23T07:43:47;5.97;;;1.45;;
43837;SDS011;65998;46.256;7.534;2024-03-23T07:46:15;6.78;;;2.58;;
43837;SDS011;65998;46.256;7.534;2024-03-23T07:48:42;8.50;;;3.05;;
43837;SDS011;65998;46.256;7.534;2024-03-23T07:51:15;8.07;;;2.92;;
43837;SDS011;65998;46.256;7.534;2024-03-23T07:53:44;19.75;;;6.43;;
43837;SDS011;65998;46.256;7.534;2024-03-23T07:56:10;6.38;;;3.00;;
43837;SDS011;65998;46.256;7.534;2024-03-23T07:58:37;4.38;;;1.20;;
43837;SDS011;65998;46.256;7.534;2024-03-23T08:01:04;6.75;;;2.03;;
43837;SDS011;65998;46.256;7.534;2024-03-23T08:03:32;5.55;;;2.05;;
43837;SDS011;65998;46.256;7.534;2024-03-23T08:06:00;4.70;;;1.45;;
43837;SDS011;65998;46.256;7.534;2024-03-23T08:08:32;5.75;;;1.60;;
43837;SDS011;65998;46.256;7.534;2024-03-23T08:10:58;5.20;;;1.73;;
43837;SDS011;65998;46.256;7.534;2024-03-23T08:13:24;6.90;;;3.30;;
43837;SDS011;65998;46.256;7.534;2024-03-23T08:15:49;4.57;;;1.30;;
43837;SDS011;65998;46.256;7.534;2024-03-23T08:18:15;4.68;;;1.10;;
43837;SDS011;65998;46.256;7.534;2024-03-23T08:20:41;3.20;;;1.10;;
43837;SDS011;65998;46.256;7.534;2024-03-23T08:23:07;4.57;;;1.13;;
43837;SDS011;65998;46.256;7.534;2024-03-23T08:25:34;4.15;;;1.10;;
43837;SDS011;65998;46.256;7.534;2024-03-23T08:28:01;4.47;;;1.85;;
43837;SDS011;65998;46.256;7.534;2024-03-23T08:30:27;5.13;;;1.80;;
43837;SDS011;65998;46.256;7.534;2024-03-23T08:32:53;4.15;;;1.48;;
43837;SDS011;65998;46.256;7.534;2024-03-23T08:35:19;3.73;;;1.20;;
43837;SDS011;65998;46.256;7.534;2024-03-23T08:37:45;4.43;;;1.45;;
43837;SDS011;65998;46.256;7.534;2024-03-23T08:40:11;2.63;;;0.60;;
43837;SDS011;65998;46.256;7.534;2024-03-23T08:42:37;3.75;;;1.63;;
43837;SDS011;65998;46.256;7.534;2024-03-23T08:45:02;4.97;;;2.03;;
43837;SDS011;65998;46.256;7.534;2024-03-23T08:47:29;3.33;;;1.55;;
43837;SDS011;65998;46.256;7.534;2024-03-23T08:49:54;2.70;;;0.90;;
43837;SDS011;65998;46.256;7.534;2024-03-23T08:52:20;2.63;;;0.70;;
43837;SDS011;65998;46.256;7.534;2024-03-23T08:54:46;2.13;;;0.70;;
43837;SDS011;65998;46.256;7.534;2024-03-23T08:57:12;1.90;;;0.63;;
43837;SDS011;65998;46.256;7.534;2024-03-23T08:59:38;3.10;;;0.83;;
43837;SDS011;65998;46.256;7.534;2024-03-23T09:02:03;3.10;;;1.10;;
43837;SDS011;65998;46.256;7.534;2024-03-23T09:04:29;3.47;;;1.40;;
43837;SDS011;65998;46.256;7.534;2024-03-23T09:06:55;2.63;;;0.70;;
43837;SDS011;65998;46.256;7.534;2024-03-23T09:09:21;2.30;;;0.70;;
43837;SDS011;65998;46.256;7.534;2024-03-23T09:11:47;2.97;;;0.90;;
43837;SDS011;65998;46.256;7.534;2024-03-23T09:14:12;2.47;;;0.70;;
43837;SDS011;65998;46.256;7.534;2024-03-23T09:16:38;3.53;;;0.80;;
43837;SDS011;65998;46.256;7.534;2024-03-23T09:19:04;2.22;;;0.68;;
43837;SDS011;65998;46.256;7.534;2024-03-23T09:21:30;3.20;;;0.67;;
43837;SDS011;65998;46.256;7.534;2024-03-23T09:23:56;2.50;;;1.00;;
43837;SDS011;65998;46.256;7.534;2024-03-23T09:26:22;2.30;;;0.70;;
43837;SDS011;65998;46.256;7.534;2024-03-23T09:28:50;2.00;;;0.80;;
43837;SDS011;65998;46.256;7.534;2024-03-23T09:31:16;2.67;;;0.98;;
43837;SDS011;65998;46.256;7.534;2024-03-23T09:33:42;2.50;;;0.80;;
43837;SDS011;65998;46.256;7.534;2024-03-23T09:36:09;3.22;;;0.88;;
43837;SDS011;65998;46.256;7.534;2024-03-23T09:38:34;3.45;;;0.82;;
43837;SDS011;65998;46.256;7.534;2024-03-23T09:41:06;2.30;;;0.70;;
43837;SDS011;65998;46.256;7.534;2024-03-23T09:43:32;2.22;;;0.70;;
43837;SDS011;65998;46.256;7.534;2024-03-23T09:45:59;2.77;;;0.80;;
43837;SDS011;65998;46.256;7.534;2024-03-23T09:48:25;3.05;;;1.17;;
43837;SDS011;65998;46.256;7.534;2024-03-23T09:50:51;2.30;;;0.90;;
43837;SDS011;65998;46.256;7.534;2024-03-23T09:53:16;2.40;;;0.63;;
43837;SDS011;65998;46.256;7.534;2024-03-23T09:55:43;2.08;;;0.57;;
43837;SDS011;65998;46.256;7.534;2024-03-23T09:58:13;3.17;;;0.60;;
43837;SDS011;65998;46.256;7.534;2024-03-23T10:00:41;6.25;;;0.60;;
43837;SDS011;65998;46.256;7.534;2024-03-23T10:03:06;1.90;;;0.40;;
43837;SDS011;65998;46.256;7.534;2024-03-23T10:05:33;1.40;;;0.30;;
43837;SDS011;65998;46.256;7.534;2024-03-23T10:07:58;1.58;;;0.20;;
43837;SDS011;65998;46.256;7.534;2024-03-23T10:10:25;1.50;;;0.30;;
43837;SDS011;65998;46.256;7.534;2024-03-23T10:12:51;1.48;;;0.28;;
43837;SDS011;65998;46.256;7.534;2024-03-23T10:15:21;1.23;;;0.20;;
43837;SDS011;65998;46.256;7.534;2024-03-23T10:17:51;1.85;;;0.55;;
43837;SDS011;65998;46.256;7.534;2024-03-23T10:20:21;1.58;;;0.30;;
43837;SDS011;65998;46.256;7.534;2024-03-23T10:22:49;2.63;;;0.50;;
43837;SDS011;65998;46.256;7.534;2024-03-23T10:25:17;2.33;;;0.50;;
43837;SDS011;65998;46.256;7.534;2024-03-23T10:28:00;2.17;;;0.50;;
43837;SDS011;65998;46.256;7.534;2024-03-23T10:30:27;1.55;;;0.40;;
43837;SDS011;65998;46.256;7.534;2024-03-23T10:33:06;1.83;;;0.40;;
43837;SDS011;65998;46.256;7.534;2024-03-23T10:35:36;2.10;;;0.50;;
43837;SDS011;65998;46.256;7.534;2024-03-23T10:38:06;2.17;;;0.40;;
43837;SDS011;65998;46.256;7.534;2024-03-23T10:40:35;2.28;;;0.40;;
43837;SDS011;65998;46.256;7.534;2024-03-23T10:43:02;2.15;;;0.50;;
43837;SDS011;65998;46.256;7.534;2024-03-23T10:45:30;2.42;;;0.43;;
43837;SDS011;65998;46.256;7.534;2024-03-23T10:47:56;2.03;;;0.30;;
43837;SDS011;65998;46.256;7.534;2024-03-23T10:50:24;1.90;;;0.30;;
43837;SDS011;65998;46.256;7.534;2024-03-23T10:52:52;2.92;;;0.57;;
43837;SDS011;65998;46.256;7.534;2024-03-23T10:55:19;1.60;;;0.40;;
43837;SDS011;65998;46.256;7.534;2024-03-23T10:57:51;1.48;;;0.35;;
43837;SDS011;65998;46.256;7.534;2024-03-23T11:00:20;2.40;;;0.50;;
43837;SDS011;65998;46.256;7.534;2024-03-23T11:02:47;9.60;;;2.88;;
43837;SDS011;65998;46.256;7.534;2024-03-23T11:07:53;2.10;;;0.57;;
43837;SDS011;65998;46.256;7.534;2024-03-23T11:10:27;3.33;;;0.40;;
43837;SDS011;65998;46.256;7.534;2024-03-23T11:12:57;3.10;;;0.90;;
43837;SDS011;65998;46.256;7.534;2024-03-23T11:15:24;3.38;;;0.82;;
43837;SDS011;65998;46.256;7.534;2024-03-23T11:18:02;2.40;;;0.65;;
43837;SDS011;65998;46.256;7.534;2024-03-23T11:20:32;1.88;;;0.40;;
43837;SDS011;65998;46.256;7.534;2024-03-23T11:22:59;3.15;;;0.52;;
43837;SDS011;65998;46.256;7.534;2024-03-23T11:25:26;1.90;;;0.53;;
43837;SDS011;65998;46.256;7.534;2024-03-23T11:27:54;2.83;;;0.38;;
43837;SDS011;65998;46.256;7.534;2024-03-23T11:30:23;2.15;;;0.60;;
43837;SDS011;65998;46.256;7.534;2024-03-23T11:32:54;1.98;;;0.50;;
43837;SDS011;65998;46.256;7.534;2024-03-23T11:35:27;1.60;;;0.47;;
43837;SDS011;65998;46.256;7.534;2024-03-23T11:38:13;1.70;;;0.50;;
43837;SDS011;65998;46.256;7.534;2024-03-23T11:40:41;1.75;;;0.52;;
43837;SDS011;65998;46.256;7.534;2024-03-23T11:43:09;1.60;;;0.40;;
43837;SDS011;65998;46.256;7.534;2024-03-23T11:45:38;2.00;;;0.40;;
43837;SDS011;65998;46.256;7.534;2024-03-23T11:48:15;2.25;;;0.40;;
43837;SDS011;65998;46.256;7.534;2024-03-23T11:50:43;1.80;;;0.60;;
43837;SDS011;65998;46.256;7.534;2024-03-23T11:53:14;1.88;;;0.60;;
43837;SDS011;65998;46.256;7.534;2024-03-23T11:58:17;2.20;;;0.60;;
43837;SDS011;65998;46.256;7.534;2024-03-23T12:03:16;2.33;;;0.50;;
43837;SDS011;65998;46.256;7.534;2024-03-23T12:05:46;2.40;;;0.80;;
43837;SDS011;65998;46.256;7.534;2024-03-23T12:08:16;6.93;;;2.72;;
43837;SDS011;65998;46.256;7.534;2024-03-23T12:10:47;10.32;;;4.03;;
43837;SDS011;65998;46.256;7.534;2024-03-23T12:13:21;9.95;;;4.18;;
43837;SDS011;65998;46.256;7.534;2024-03-23T12:15:49;6.47;;;2.30;;
43837;SDS011;65998;46.256;7.534;2024-03-23T12:18:15;8.60;;;3.30;;
43837;SDS011;65998;46.256;7.534;2024-03-23T12:20:42;5.47;;;1.98;;
43837;SDS011;65998;46.256;7.534;2024-03-23T12:25:34;5.20;;;2.23;;
43837;SDS011;65998;46.256;7.534;2024-03-23T12:28:01;8.38;;;2.20;;
43837;SDS011;65998;46.256;7.534;2024-03-23T12:30:27;5.20;;;1.90;;
43837;SDS011;65998;46.256;7.534;2024-03-23T12:32:53;2.47;;;0.77;;
43837;SDS011;65998;46.256;7.534;2024-03-23T12:35:19;8.40;;;3.03;;
43837;SDS011;65998;46.256;7.534;2024-03-23T12:37:44;7.38;;;1.98;;
43837;SDS011;65998;46.256;7.534;2024-03-23T12:40:10;7.17;;;2.60;;
43837;SDS011;65998;46.256;7.534;2024-03-23T12:42:36;6.40;;;2.28;;
43837;SDS011;65998;46.256;7.534;2024-03-23T12:45:02;5.53;;;1.85;;
43837;SDS011;65998;46.256;7.534;2024-03-23T12:47:30;4.23;;;1.60;;
43837;SDS011;65998;46.256;7.534;2024-03-23T12:49:56;4.22;;;1.50;;
43837;SDS011;65998;46.256;7.534;2024-03-23T12:52:21;4.05;;;1.95;;
43837;SDS011;65998;46.256;7.534;2024-03-23T12:54:47;4.37;;;1.33;;
43837;SDS011;65998;46.256;7.534;2024-03-23T12:57:13;4.30;;;1.60;;
43837;SDS011;65998;46.256;7.534;2024-03-23T12:59:39;3.03;;;1.00;;
43837;SDS011;65998;46.256;7.534;2024-03-23T13:02:04;2.30;;;0.90;;
43837;SDS011;65998;46.256;7.534;2024-03-23T13:04:31;3.13;;;1.30;;
43837;SDS011;65998;46.256;7.534;2024-03-23T13:06:56;3.33;;;1.00;;
43837;SDS011;65998;46.256;7.534;2024-03-23T13:09:22;6.82;;;2.83;;
43837;SDS011;65998;46.256;7.534;2024-03-23T13:11:48;2.67;;;1.10;;
43837;SDS011;65998;46.256;7.534;2024-03-23T13:14:14;3.28;;;1.52;;
43837;SDS011;65998;46.256;7.534;2024-03-23T13:16:39;3.90;;;1.93;;
43837;SDS011;65998;46.256;7.534;2024-03-23T13:19:05;6.53;;;2.28;;
43837;SDS011;65998;46.256;7.534;2024-03-23T13:21:31;3.42;;;1.10;;
43837;SDS011;65998;46.256;7.534;2024-03-23T13:23:57;3.20;;;1.80;;
43837;SDS011;65998;46.256;7.534;2024-03-23T13:26:22;2.63;;;1.25;;
43837;SDS011;65998;46.256;7.534;2024-03-23T13:28:48;1.90;;;0.90;;
43837;SDS011;65998;46.256;7.534;2024-03-23T13:31:14;2.73;;;0.90;;
43837;SDS011;65998;46.256;7.534;2024-03-23T13:33:40;1.88;;;0.90;;
43837;SDS011;65998;46.256;7.534;2024-03-23T13:36:06;1.90;;;0.90;;
43837;SDS011;65998;46.256;7.534;2024-03-23T13:38:32;2.67;;;0.80;;
43837;SDS011;65998;46.256;7.534;2024-03-23T13:40:59;2.60;;;0.60;;
43837;SDS011;65998;46.256;7.534;2024-03-23T13:43:27;2.00;;;0.70;;
43837;SDS011;65998;46.256;7.534;2024-03-23T13:45:54;2.05;;;0.60;;
43837;SDS011;65998;46.256;7.534;2024-03-23T13:48:23;1.70;;;0.50;;
43837;SDS011;65998;46.256;7.534;2024-03-23T13:50:57;2.00;;;0.50;;
43837;SDS011;65998;46.256;7.534;2024-03-23T13:53:26;1.70;;;0.60;;
43837;SDS011;65998;46.256;7.534;2024-03-23T13:55:52;2.90;;;0.60;;
43837;SDS011;65998;46.256;7.534;2024-03-23T13:58:19;1.70;;;0.60;;
43837;SDS011;65998;46.256;7.534;2024-03-23T14:00:46;2.00;;;0.60;;
43837;SDS011;65998;46.256;7.534;2024-03-23T14:03:13;2.10;;;0.70;;
43837;SDS011;65998;46.256;7.534;2024-03-23T14:05:41;3.00;;;0.73;;
43837;SDS011;65998;46.256;7.534;2024-03-23T14:08:09;2.55;;;0.70;;
43837;SDS011;65998;46.256;7.534;2024-03-23T14:10:39;2.20;;;0.70;;
43837;SDS011;65998;46.256;7.534;2024-03-23T14:13:06;1.90;;;0.68;;
43837;SDS011;65998;46.256;7.534;2024-03-23T14:15:32;2.57;;;0.90;;
43837;SDS011;65998;46.256;7.534;2024-03-23T14:17:59;2.08;;;0.60;;
43837;SDS011;65998;46.256;7.534;2024-03-23T14:20:24;1.95;;;0.50;;
43837;SDS011;65998;46.256;7.534;2024-03-23T14:22:51;2.08;;;0.60;;
43837;SDS011;65998;46.256;7.534;2024-03-23T14:25:17;2.77;;;0.70;;
43837;SDS011;65998;46.256;7.534;2024-03-23T14:27:44;2.45;;;0.70;;
43837;SDS011;65998;46.256;7.534;2024-03-23T14:30:10;2.97;;;0.70;;
43837;SDS011;65998;46.256;7.534;2024-03-23T14:32:37;2.50;;;0.77;;
43837;SDS011;65998;46.256;7.534;2024-03-23T14:35:03;2.17;;;0.70;;
43837;SDS011;65998;46.256;7.534;2024-03-23T14:37:29;2.38;;;0.80;;
43837;SDS011;65998;46.256;7.534;2024-03-23T14:39:58;3.67;;;1.20;;
43837;SDS011;65998;46.256;7.534;2024-03-23T14:42:24;3.22;;;1.10;;
43837;SDS011;65998;46.256;7.534;2024-03-23T14:44:51;2.87;;;0.80;;
43837;SDS011;65998;46.256;7.534;2024-03-23T14:47:18;2.58;;;0.70;;
43837;SDS011;65998;46.256;7.534;2024-03-23T14:49:44;2.10;;;0.68;;
43837;SDS011;65998;46.256;7.534;2024-03-23T14:52:11;3.72;;;1.17;;
43837;SDS011;65998;46.256;7.534;2024-03-23T14:54:36;4.27;;;0.90;;
43837;SDS011;65998;46.256;7.534;2024-03-23T14:57:02;2.00;;;0.73;;
43837;SDS011;65998;46.256;7.534;2024-03-23T14:59:28;2.97;;;1.25;;
43837;SDS011;65998;46.256;7.534;2024-03-23T15:01:54;2.40;;;0.70;;
43837;SDS011;65998;46.256;7.534;2024-03-23T15:04:20;6.25;;;2.33;;
43837;SDS011;65998;46.256;7.534;2024-03-23T15:06:46;5.17;;;1.60;;
43837;SDS011;65998;46.256;7.534;2024-03-23T15:09:11;6.57;;;2.90;;
43837;SDS011;65998;46.256;7.534;2024-03-23T15:11:37;4.32;;;1.77;;
43837;SDS011;65998;46.256;7.534;2024-03-23T15:14:03;4.83;;;1.80;;
43837;SDS011;65998;46.256;7.534;2024-03-23T15:16:29;4.28;;;1.67;;
43837;SDS011;65998;46.256;7.534;2024-03-23T15:18:54;4.40;;;1.40;;
43837;SDS011;65998;46.256;7.534;2024-03-23T15:21:20;6.75;;;2.03;;
43837;SDS011;65998;46.256;7.534;2024-03-23T15:23:46;5.57;;;1.73;;
43837;SDS011;65998;46.256;7.534;2024-03-23T15:26:12;4.05;;;1.13;;
43837;SDS011;65998;46.256;7.534;2024-03-23T15:28:38;4.80;;;1.20;;
43837;SDS011;65998;46.256;7.534;2024-03-23T15:31:07;6.80;;;2.17;;
43837;SDS011;65998;46.256;7.534;2024-03-23T15:33:33;3.47;;;1.10;;
43837;SDS011;65998;46.256;7.534;2024-03-23T15:36:00;2.67;;;0.80;;
43837;SDS011;65998;46.256;7.534;2024-03-23T15:38:26;3.13;;;0.68;;
43837;SDS011;65998;46.256;7.534;2024-03-23T15:40:52;4.53;;;0.73;;
43837;SDS011;65998;46.256;7.534;2024-03-23T15:43:18;2.08;;;0.57;;
43837;SDS011;65998;46.256;7.534;2024-03-23T15:45:44;2.20;;;0.50;;
43837;SDS011;65998;46.256;7.534;2024-03-23T15:48:18;3.15;;;0.60;;